Davenport, Arkansas
Current Conditions -  °F | °C
As of 3:56 PM on Thursday 20 Nov 2014 (Local Time) from KSRC Reporting Station
Scattered Clouds Scattered Clouds  
Wind Chill: 53°   Ceiling: Unl
Heat Index: 53°   Visibility: 10mi
Dew Point: 27°   Wind: 7mph
Humidity: 37%   Direction: 90°E
Pressure: 30.19"   Gusts: NA
Location:  35.4331°N, 91.7663°W
Report Text: KSRC 202156Z AUTO 09006KT 10SM SCT045 12/M03 A3019 RMK AO2 SLP229 T01171028 TSNO
Loading
Personal Weather Stations






























Interactive Weather Map New forecast layout! Learn more

10-Day Weather Forecast

Advertisements
Track Severe Weather on mobile